Donaldson, Kentucky
Current Conditions -  °F | °C
As of 1:58 PM on Tuesday 21 Oct 2014 (Local Time) from KHOP Reporting Station
Clear Clear  
Wind Chill: 70°   Ceiling: Unl
Heat Index: 70°   Visibility: 10mi
Dew Point: 46°   Wind: 13mph
Humidity: 43%   Direction: 330°NNW
Pressure: 30.04"   Gusts: NA
Location:  36.8031°N, 87.8159°W
Report Text: KHOP 211858Z AUTO 33011KT 10SM CLR 21/08 A3004 RMK AO2 SLP172 T02090079
Loading
Personal Weather Stations






























Interactive Weather Map
Tropical Storm Tracking
New forecast layout! Learn more

10-Day Weather Forecast

Advertisements
Track Severe Weather on mobile